Time;durP1;ratioP1;P1;durP2;ratioP2;P2;SDS_P1;SDS_P2;PMS_P1;PMS_P2;Temp;Humidity;BMP_temperature;BMP_pressure;BME280_temperature;BME280_humidity;BME280_pressure;Samples;Min_cycle;Max_cycle;Signal;HPM_P1;HPM_P2
2022/03/19 00:00:21;;;;;;;15.75;4.10;;;5.50;99.90;;;;;;5057224;28;20048;-60
2022/03/19 00:02:47;;;;;;;18.08;4.00;;;5.40;99.90;;;;;;5075267;28;20041;-59
2022/03/19 00:05:13;;;;;;;18.30;5.65;;;;;;;;;;5075114;28;20052;-60
2022/03/19 00:07:43;;;;;;;13.40;4.03;;;;;;;;;;5056835;28;20120;-60
2022/03/19 00:10:09;;;;;;;10.07;3.30;;;;;;;;;;5075401;28;20052;-58
2022/03/19 00:12:39;;;;;;;14.85;3.33;;;5.40;99.90;;;;;;5057254;28;20124;-60
2022/03/19 00:15:06;;;;;;;14.55;4.18;;;5.30;99.90;;;;;;5075163;28;20080;-60
2022/03/19 00:17:32;;;;;;;13.77;3.55;;;5.40;99.90;;;;;;5074787;28;20115;-59
2022/03/19 00:19:58;;;;;;;14.82;3.47;;;;;;;;;;5075466;28;20525;-60
2022/03/19 00:22:23;;;;;;;12.25;2.78;;;5.30;99.90;;;;;;5075488;28;20128;-59
2022/03/19 00:24:49;;;;;;;13.90;3.70;;;5.10;99.90;;;;;;5074428;28;20086;-59
2022/03/19 00:27:15;;;;;;;13.80;3.88;;;;;;;;;;5056959;28;20094;-59
2022/03/19 00:29:41;;;;;;;14.55;3.72;;;;;;;;;;5040532;28;20090;-60
2022/03/19 00:32:07;;;;;;;13.27;3.63;;;4.70;99.90;;;;;;5057052;28;20044;-60
2022/03/19 00:34:34;;;;;;;15.05;3.80;;;;;;;;;;5057387;28;20139;-60
2022/03/19 00:36:59;;;;;;;13.25;2.97;;;4.60;99.90;;;;;;5073653;28;20067;-60
2022/03/19 00:39:25;;;;;;;17.25;3.47;;;;;;;;;;5074404;28;20029;-60
2022/03/19 00:41:55;;;;;;;10.48;3.65;;;;;;;;;;5060262;22;20066;-59
2022/03/19 00:44:21;;;;;;;18.00;3.90;;;4.50;99.90;;;;;;4973600;28;20051;-59
2022/03/19 00:46:48;;;;;;;13.82;3.88;;;4.70;99.90;;;;;;4973785;28;20123;-60
2022/03/19 00:49:14;;;;;;;12.43;3.20;;;4.60;99.90;;;;;;4973193;28;20038;-60
2022/03/19 00:51:40;;;;;;;9.48;3.45;;;;;;;;;;4972447;28;20572;-60
2022/03/19 00:54:08;;;;;;;15.15;3.78;;;4.60;99.90;;;;;;4972882;28;20370;-60
2022/03/19 00:56:34;;;;;;;19.23;3.58;;;;;;;;;;4972874;28;20132;-60
2022/03/19 00:59:09;;;;;;;13.43;3.55;;;;;;;;;;4973178;28;20086;-60
2022/03/19 01:01:35;;;;;;;15.10;3.17;;;4.70;99.90;;;;;;4973762;28;20050;-60
2022/03/19 01:04:01;;;;;;;11.88;3.10;;;;;;;;;;4972636;28;20069;-60
2022/03/19 01:06:27;;;;;;;20.70;3.85;;;;;;;;;;4972460;28;20043;-59
2022/03/19 01:08:53;;;;;;;13.88;4.40;;;;;;;;;;4972123;28;20043;-60
2022/03/19 01:11:23;;;;;;;14.45;3.60;;;4.60;99.90;;;;;;4972404;28;20084;-58
2022/03/19 01:13:50;;;;;;;8.73;3.30;;;;;;;;;;4972186;28;20059;-58
2022/03/19 01:16:18;;;;;;;9.32;4.03;;;4.50;99.90;;;;;;4971770;28;20046;-58
2022/03/19 01:18:44;;;;;;;14.68;4.13;;;;;;;;;;4971999;28;20042;-59
2022/03/19 01:21:10;;;;;;;12.30;3.38;;;;;;;;;;4971885;28;20035;-58
2022/03/19 01:23:36;;;;;;;16.00;3.17;;;;;;;;;;4972269;28;20041;-58
2022/03/19 01:26:02;;;;;;;14.30;4.57;;;;;;;;;;4971634;28;20049;-57
2022/03/19 01:28:28;;;;;;;14.23;4.15;;;4.60;99.90;;;;;;4971804;28;20042;-57
2022/03/19 01:30:54;;;;;;;16.65;4.35;;;;;;;;;;4971750;28;20038;-58
2022/03/19 01:33:19;;;;;;;16.73;4.95;;;4.60;99.90;;;;;;4971919;28;20093;-57
2022/03/19 01:35:45;;;;;;;14.77;3.85;;;4.60;99.90;;;;;;4971572;28;20046;-59
2022/03/19 01:38:10;;;;;;;9.75;3.40;;;4.60;99.90;;;;;;4954796;28;20440;-59
2022/03/19 01:40:36;;;;;;;10.93;3.22;;;4.40;99.90;;;;;;4971579;28;20571;-58
2022/03/19 01:43:02;;;;;;;14.25;3.33;;;4.40;99.90;;;;;;4970582;28;20055;-59
2022/03/19 01:45:28;;;;;;;19.52;3.67;;;4.40;99.90;;;;;;4970305;28;20519;-58
2022/03/19 01:47:55;;;;;;;12.32;3.72;;;;;;;;;;4971984;28;20039;-58
2022/03/19 01:50:24;;;;;;;10.73;3.47;;;4.40;99.90;;;;;;4971640;28;20047;-59
2022/03/19 01:52:53;;;;;;;12.00;3.03;;;;;;;;;;4973276;28;20035;-58
2022/03/19 01:55:21;;;;;;;13.38;3.40;;;;;;;;;;4971065;28;20046;-59
2022/03/19 01:57:48;;;;;;;12.25;3.50;;;4.20;99.90;;;;;;4972103;28;20043;-59
2022/03/19 02:00:18;;;;;;;15.25;4.20;;;4.40;99.90;;;;;;4970448;28;20046;-59
2022/03/19 02:02:45;;;;;;;14.20;3.28;;;4.40;99.90;;;;;;4972932;28;20050;-59
2022/03/19 02:05:14;;;;;;;15.93;3.70;;;4.60;99.90;;;;;;4971801;28;20039;-57
2022/03/19 02:07:40;;;;;;;16.27;3.33;;;;;;;;;;4971686;28;20100;-59
2022/03/19 02:10:06;;;;;;;13.88;3.45;;;4.30;99.90;;;;;;4971831;28;20050;-56
2022/03/19 02:12:32;;;;;;;11.18;2.67;;;4.40;99.90;;;;;;4966122;28;20066;-59
2022/03/19 02:14:58;;;;;;;11.77;2.95;;;;;;;;;;4955797;28;20043;-57
2022/03/19 02:17:26;;;;;;;9.43;3.10;;;;;;;;;;4955851;29;20039;-58
2022/03/19 02:19:54;;;;;;;13.85;3.30;;;4.30;99.90;;;;;;4955619;29;20039;-59
2022/03/19 02:22:21;;;;;;;10.43;3.25;;;;;;;;;;5023076;28;20075;-58
2022/03/19 02:27:33;;;;;;;16.63;3.35;;;;;;;;;;4955718;29;20047;-58
2022/03/19 02:29:59;;;;;;;16.85;3.42;;;4.30;99.90;;;;;;4954208;29;20038;-58
2022/03/19 02:32:25;;;;;;;12.93;3.58;;;4.40;99.90;;;;;;4954884;28;20058;-59
2022/03/19 02:34:54;;;;;;;13.80;3.40;;;;;;;;;;4937895;28;20043;-56
2022/03/19 02:37:20;;;;;;;10.48;4.20;;;;;;;;;;4938291;28;20047;-58
2022/03/19 02:39:46;;;;;;;11.65;3.85;;;4.20;99.90;;;;;;4955342;28;20130;-59
2022/03/19 02:42:15;;;;;;;18.38;6.25;;;;;;;;;;4954715;28;20135;-59
2022/03/19 02:44:41;;;;;;;17.52;3.45;;;;;;;;;;4959395;28;20039;-58
2022/03/19 02:47:07;;;;;;;12.18;3.70;;;4.10;99.90;;;;;;4974322;28;20127;-58
2022/03/19 02:49:33;;;;;;;11.88;4.15;;;4.20;99.90;;;;;;4974735;28;20056;-58
2022/03/19 02:51:59;;;;;;;11.18;3.78;;;3.90;99.90;;;;;;4973358;28;20129;-60
2022/03/19 02:54:27;;;;;;;19.10;3.50;;;4.10;99.90;;;;;;4973290;28;20051;-58
2022/03/19 02:56:53;;;;;;;14.98;3.70;;;4.10;99.90;;;;;;4973032;28;20051;-58
2022/03/19 02:59:27;;;;;;;12.43;3.70;;;4.30;99.90;;;;;;4974097;28;20053;-57
2022/03/19 03:02:02;;;;;;;10.68;3.70;;;4.10;99.90;;;;;;4974151;28;20050;-58
2022/03/19 03:04:28;;;;;;;13.98;4.75;;;;;;;;;;4973049;28;20050;-58
2022/03/19 03:06:55;;;;;;;17.27;4.20;;;;;;;;;;4973965;28;20078;-59
2022/03/19 03:09:26;;;;;;;18.55;4.15;;;4.20;99.90;;;;;;4972936;28;20137;-58
2022/03/19 03:11:53;;;;;;;9.75;3.53;;;4.00;99.90;;;;;;4973209;28;20063;-59
2022/03/19 03:14:22;;;;;;;17.45;4.63;;;;;;;;;;4972938;28;20485;-58
2022/03/19 03:16:49;;;;;;;12.70;3.30;;;4.10;99.90;;;;;;4973362;28;20104;-58
2022/03/19 03:19:15;;;;;;;18.02;4.18;;;;;;;;;;4972468;28;20431;-58
2022/03/19 03:21:41;;;;;;;15.27;3.22;;;4.10;99.90;;;;;;4972448;28;20045;-59
2022/03/19 03:24:08;;;;;;;16.80;3.75;;;3.90;99.90;;;;;;4957531;28;20405;-58
2022/03/19 03:26:34;;;;;;;17.25;4.45;;;3.90;99.90;;;;;;4973681;28;20484;-58
2022/03/19 03:29:00;;;;;;;17.58;4.03;;;4.10;99.90;;;;;;4973867;28;20046;-56
2022/03/19 03:31:26;;;;;;;12.07;3.67;;;4.00;99.90;;;;;;4972375;28;20493;-59
2022/03/19 03:33:53;;;;;;;13.60;4.03;;;3.80;99.90;;;;;;4972363;28;20050;-59
2022/03/19 03:36:19;;;;;;;13.52;3.83;;;;;;;;;;4973842;28;20061;-58
2022/03/19 03:38:45;;;;;;;12.38;3.80;;;;;;;;;;4957006;28;20058;-59
2022/03/19 03:41:11;;;;;;;13.95;4.57;;;;;;;;;;4974023;28;20055;-59
2022/03/19 03:43:36;;;;;;;15.43;4.07;;;3.90;99.90;;;;;;4973861;28;20050;-60
2022/03/19 03:46:02;;;;;;;15.27;3.70;;;3.80;99.90;;;;;;4973588;28;20093;-60
2022/03/19 03:48:28;;;;;;;15.48;4.43;;;;;;;;;;4973355;28;20042;-59
2022/03/19 03:50:56;;;;;;;15.95;3.88;;;3.90;99.90;;;;;;4973415;28;20118;-59
2022/03/19 03:53:28;;;;;;;13.75;3.30;;;3.80;99.90;;;;;;4973595;28;20519;-58
2022/03/19 03:55:54;;;;;;;13.10;3.72;;;;;;;;;;4974036;28;20055;-59
2022/03/19 03:58:21;;;;;;;13.90;3.75;;;;;;;;;;4973389;28;20042;-60
2022/03/19 04:01:17;;;;;;;16.95;4.30;;;;;;;;;;4972394;28;20472;-61
2022/03/19 04:03:42;;;;;;;13.65;4.07;;;;;;;;;;4972939;28;20515;-58
2022/03/19 04:06:08;;;;;;;14.00;3.97;;;3.80;99.90;;;;;;4973008;28;20085;-58
2022/03/19 04:08:34;;;;;;;13.93;4.05;;;3.70;99.90;;;;;;4973555;28;20045;-59
2022/03/19 04:10:59;;;;;;;12.68;4.00;;;3.70;99.90;;;;;;4972003;28;20041;-59
2022/03/19 04:13:25;;;;;;;15.00;4.50;;;3.80;99.90;;;;;;4973683;28;20047;-59
2022/03/19 04:15:51;;;;;;;18.02;4.82;;;;;;;;;;4972639;28;20118;-59
2022/03/19 04:18:17;;;;;;;11.73;4.68;;;3.80;99.90;;;;;;4972335;28;20046;-59
2022/03/19 04:20:44;;;;;;;18.33;4.53;;;;;;;;;;5026936;23;20042;-59
2022/03/19 04:23:10;;;;;;;13.38;3.58;;;;;;;;;;4972895;28;20055;-59
2022/03/19 04:25:35;;;;;;;13.70;4.75;;;3.70;99.90;;;;;;4971478;28;20118;-59
2022/03/19 04:28:01;;;;;;;13.80;4.57;;;;;;;;;;4972674;28;20046;-58
2022/03/19 04:30:27;;;;;;;14.77;4.63;;;;;;;;;;4972592;28;20043;-59
2022/03/19 04:33:01;;;;;;;14.82;3.95;;;3.70;99.90;;;;;;4939276;28;20389;-59
2022/03/19 04:38:16;;;;;;;;;;;3.70;99.90;;;;;;4973179;28;20042;-59
2022/03/19 04:40:43;;;;;;;11.68;4.22;;;;;;;;;;4955686;28;19918;-59
2022/03/19 04:43:09;;;;;;;12.02;5.47;;;;;;;;;;4972783;28;20129;-59
2022/03/19 04:45:36;;;;;;;16.58;4.22;;;;;;;;;;4972662;28;20595;-59
2022/03/19 04:48:02;;;;;;;23.15;5.15;;;3.50;99.90;;;;;;4972727;28;20407;-59
2022/03/19 04:50:28;;;;;;;13.15;4.45;;;;;;;;;;4972672;28;20129;-60
2022/03/19 04:52:54;;;;;;;15.85;5.18;;;;;;;;;;4972892;28;20439;-59
2022/03/19 04:55:21;;;;;;;16.00;4.80;;;3.60;99.90;;;;;;4972917;28;20043;-59
2022/03/19 04:57:48;;;;;;;17.35;4.68;;;3.60;99.90;;;;;;4972785;28;20050;-59
2022/03/19 05:00:16;;;;;;;14.60;4.15;;;3.50;99.90;;;;;;4955317;28;20039;-59
2022/03/19 05:02:43;;;;;;;19.23;5.75;;;3.60;99.90;;;;;;4973145;28;20092;-59
2022/03/19 05:05:09;;;;;;;9.02;4.63;;;;;;;;;;4973056;28;20093;-59
2022/03/19 05:07:35;;;;;;;15.45;4.43;;;;;;;;;;4973357;28;20060;-58
2022/03/19 05:12:49;;;;;;;10.65;3.95;;;3.50;99.90;;;;;;4972901;28;20050;-58
2022/03/19 05:15:16;;;;;;;18.75;4.60;;;;;;;;;;4971733;28;20038;-59
2022/03/19 05:17:43;;;;;;;11.43;4.82;;;3.50;99.90;;;;;;4971992;28;20496;-59
2022/03/19 05:20:09;;;;;;;15.55;5.47;;;3.50;99.90;;;;;;4971885;28;20469;-59
2022/03/19 05:22:35;;;;;;;14.75;4.65;;;;;;;;;;4971918;28;20047;-59
2022/03/19 05:25:02;;;;;;;18.02;4.70;;;;;;;;;;4955138;28;20137;-58
2022/03/19 05:27:28;;;;;;;9.45;4.53;;;;;;;;;;4954874;28;20527;-59
2022/03/19 05:29:54;;;;;;;11.82;4.68;;;3.40;99.90;;;;;;4971617;28;20121;-59
2022/03/19 05:32:21;;;;;;;17.02;5.18;;;3.50;99.90;;;;;;4971376;28;20188;-59
2022/03/19 05:34:47;;;;;;;14.70;4.45;;;;;;;;;;4971622;28;20074;-60
2022/03/19 05:37:13;;;;;;;16.10;4.72;;;3.50;99.90;;;;;;4953925;28;20504;-59
2022/03/19 05:39:39;;;;;;;16.90;4.95;;;3.20;99.90;;;;;;4971547;28;20192;-61
2022/03/19 05:42:05;;;;;;;11.27;4.82;;;;;;;;;;4967338;28;20153;-59
2022/03/19 05:44:31;;;;;;;18.15;4.45;;;3.50;99.90;;;;;;4970714;28;20043;-59
2022/03/19 05:47:00;;;;;;;16.42;5.80;;;;;;;;;;4970401;28;20043;-60
2022/03/19 05:49:26;;;;;;;17.45;5.20;;;;;;;;;;4967194;28;20524;-59
2022/03/19 05:51:53;;;;;;;10.13;4.10;;;3.50;99.90;;;;;;4970883;28;20039;-59
2022/03/19 05:54:19;;;;;;;17.58;5.55;;;3.60;99.90;;;;;;4973649;28;20038;-59
2022/03/19 05:56:45;;;;;;;13.00;4.70;;;;;;;;;;4973571;28;20065;-59
2022/03/19 05:59:11;;;;;;;9.98;4.80;;;3.70;99.90;;;;;;4973565;28;20084;-59
2022/03/19 06:01:37;;;;;;;15.27;4.57;;;3.90;99.90;;;;;;4970642;28;20392;-60
2022/03/19 06:04:03;;;;;;;12.82;4.15;;;4.00;99.90;;;;;;4973590;28;20072;-60
2022/03/19 06:06:29;;;;;;;14.40;4.43;;;4.00;99.90;;;;;;4973439;28;20042;-60
2022/03/19 06:08:55;;;;;;;13.23;4.93;;;4.20;99.90;;;;;;4973490;28;20388;-59
2022/03/19 06:11:21;;;;;;;16.17;4.38;;;4.40;99.90;;;;;;4973368;28;20034;-59
2022/03/19 06:13:47;;;;;;;15.55;5.13;;;;;;;;;;4973199;28;20605;-60
2022/03/19 06:16:12;;;;;;;19.73;5.00;;;4.70;99.90;;;;;;4970403;28;20084;-60
2022/03/19 06:18:38;;;;;;;12.95;5.22;;;4.80;99.90;;;;;;4972464;28;20035;-62
2022/03/19 06:21:04;;;;;;;21.10;5.10;;;;;;;;;;4972753;28;20134;-61
2022/03/19 06:23:30;;;;;;;13.57;4.28;;;4.70;99.90;;;;;;4972929;28;20416;-62
2022/03/19 06:25:57;;;;;;;16.70;4.57;;;;;;;;;;4973126;28;20035;-62
2022/03/19 06:28:23;;;;;;;20.08;5.10;;;5.20;99.90;;;;;;4972583;28;20039;-61
2022/03/19 06:30:49;;;;;;;13.07;4.47;;;;;;;;;;4969660;28;20420;-62
2022/03/19 06:33:15;;;;;;;11.60;4.13;;;5.10;99.90;;;;;;4955747;28;20459;-60
2022/03/19 06:38:26;;;;;;;;;;;5.40;99.90;;;;;;4973664;28;20043;-60
2022/03/19 06:40:52;;;;;;;13.05;4.63;;;5.40;99.90;;;;;;4974053;28;19922;-60
2022/03/19 06:43:18;;;;;;;13.57;4.30;;;5.40;99.90;;;;;;4956556;28;20050;-62
2022/03/19 06:45:43;;;;;;;12.02;3.95;;;5.50;99.90;;;;;;4972495;28;20547;-60
2022/03/19 06:48:09;;;;;;;13.80;4.97;;;;;;;;;;4972744;28;20027;-62
2022/03/19 06:50:35;;;;;;;12.65;4.45;;;5.60;99.90;;;;;;4971706;28;20070;-62
2022/03/19 06:53:05;;;;;;;12.90;4.15;;;5.70;99.90;;;;;;4970789;28;20038;-61
2022/03/19 06:55:32;;;;;;;19.05;4.75;;;;;;;;;;4969830;28;20046;-62
2022/03/19 06:57:58;;;;;;;16.33;4.22;;;6.10;99.90;;;;;;4954569;28;20515;-63
2022/03/19 07:00:24;;;;;;;15.43;4.80;;;;;;;;;;4972789;28;20031;-63
2022/03/19 07:02:51;;;;;;;18.15;6.20;;;;;;;;;;4972546;28;20416;-63
2022/03/19 07:05:20;;;;;;;12.38;4.18;;;7.50;99.90;;;;;;4955130;28;20080;-61
2022/03/19 07:07:47;;;;;;;14.23;4.47;;;7.90;99.90;;;;;;4972358;28;20043;-59
2022/03/19 07:10:13;;;;;;;13.45;4.57;;;8.30;99.90;;;;;;4972337;28;20042;-61
2022/03/19 07:12:46;;;;;;;12.48;4.40;;;8.60;99.90;;;;;;4955075;28;20072;-59
2022/03/19 07:15:16;;;;;;;15.98;4.03;;;8.80;99.90;;;;;;4972376;28;20550;-62
2022/03/19 07:17:43;;;;;;;17.05;4.30;;;9.30;99.90;;;;;;4971757;28;20054;-64
2022/03/19 07:20:10;;;;;;;13.38;3.45;;;9.70;99.90;;;;;;4972409;28;20042;-64
2022/03/19 07:22:51;;;;;;;16.35;4.32;;;9.80;99.90;;;;;;4952424;28;20062;-64
2022/03/19 07:25:18;;;;;;;14.88;4.95;;;10.40;99.90;;;;;;4951186;28;20047;-63
2022/03/19 07:27:45;;;;;;;15.40;4.18;;;10.60;99.90;;;;;;4968378;28;20046;-64
2022/03/19 07:30:11;;;;;;;18.90;4.75;;;11.40;99.90;;;;;;4946722;28;20046;-63
2022/03/19 07:32:37;;;;;;;12.20;4.75;;;11.30;99.90;;;;;;4945258;28;20055;-66
2022/03/19 07:35:04;;;;;;;9.32;3.85;;;11.50;99.90;;;;;;4928313;28;20043;-62
2022/03/19 07:37:30;;;;;;;16.67;4.22;;;12.30;99.90;;;;;;4932527;28;20050;-64
2022/03/19 07:39:56;;;;;;;12.93;3.83;;;12.60;99.90;;;;;;4938190;28;20054;-64
2022/03/19 07:42:22;;;;;;;13.25;4.30;;;12.40;99.90;;;;;;4930630;28;20414;-65
2022/03/19 07:44:48;;;;;;;14.15;4.43;;;12.20;99.90;;;;;;4941131;28;20051;-63
2022/03/19 07:47:14;;;;;;;12.82;4.55;;;12.40;99.90;;;;;;4951481;28;20047;-64
2022/03/19 07:49:40;;;;;;;14.07;4.35;;;12.60;99.90;;;;;;4952568;28;20050;-64
2022/03/19 07:52:07;;;;;;;11.18;4.15;;;12.40;99.90;;;;;;4963165;28;20047;-64
2022/03/19 07:54:32;;;;;;;12.88;4.50;;;12.50;99.90;;;;;;4939382;28;20063;-63
2022/03/19 07:56:58;;;;;;;11.82;3.75;;;12.80;99.90;;;;;;4952827;28;20047;-65
2022/03/19 07:59:24;;;;;;;10.27;4.60;;;13.20;99.90;;;;;;4954615;28;20054;-64
2022/03/19 08:01:49;;;;;;;8.73;3.88;;;12.70;99.90;;;;;;4961267;28;20096;-63
2022/03/19 08:04:16;;;;;;;12.35;4.28;;;13.00;99.90;;;;;;4951292;28;20074;-64
2022/03/19 08:06:41;;;;;;;15.20;4.65;;;11.20;99.90;;;;;;4970864;28;20035;-63
2022/03/19 08:09:09;;;;;;;14.23;4.50;;;11.70;99.90;;;;;;5052573;28;20028;-62
2022/03/19 08:11:35;;;;;;;10.13;4.10;;;12.10;99.90;;;;;;5009586;28;20455;-64
2022/03/19 08:14:01;;;;;;;13.80;4.65;;;12.50;99.90;;;;;;5016717;28;20069;-64
2022/03/19 08:16:27;;;;;;;21.15;6.45;;;12.70;99.90;;;;;;4973639;28;20047;-62
2022/03/19 08:18:53;;;;;;;11.20;4.75;;;13.00;99.90;;;;;;4966775;28;20418;-65
2022/03/19 08:21:18;;;;;;;13.10;4.20;;;13.60;99.90;;;;;;4966333;28;20134;-64
2022/03/19 08:23:46;;;;;;;11.35;3.97;;;13.70;99.90;;;;;;4989715;28;20049;-63
2022/03/19 08:26:12;;;;;;;12.02;3.95;;;14.20;99.90;;;;;;4973730;28;20061;-63
2022/03/19 08:28:37;;;;;;;11.65;3.60;;;14.10;99.90;;;;;;4950303;28;20043;-63
2022/03/19 08:31:03;;;;;;;13.65;4.15;;;13.80;99.90;;;;;;4964587;28;20579;-64
2022/03/19 08:33:28;;;;;;;12.25;3.45;;;13.80;99.90;;;;;;5063779;28;20051;-63
2022/03/19 08:35:54;;;;;;;12.93;4.20;;;13.60;99.90;;;;;;4984566;28;20064;-63
2022/03/19 08:41:04;;;;;;;10.63;4.00;;;13.20;99.90;;;;;;4963426;28;20046;-65
2022/03/19 08:43:30;;;;;;;15.38;4.22;;;12.40;99.90;;;;;;4965534;28;20047;-64
2022/03/19 08:45:56;;;;;;;10.45;3.92;;;12.50;99.90;;;;;;4948734;28;20050;-63
2022/03/19 08:48:21;;;;;;;13.43;4.82;;;12.20;99.90;;;;;;4954348;28;20101;-63
2022/03/19 08:50:47;;;;;;;16.00;3.40;;;12.70;99.90;;;;;;4949374;28;20047;-63
2022/03/19 08:53:14;;;;;;;13.00;3.30;;;12.70;99.90;;;;;;4943524;28;20155;-66
2022/03/19 08:55:40;;;;;;;8.85;3.50;;;13.10;99.90;;;;;;4951866;28;20097;-63
2022/03/19 08:58:05;;;;;;;11.85;3.13;;;13.00;99.90;;;;;;5022352;28;20047;-63
2022/03/19 09:00:31;;;;;;;10.85;3.42;;;13.10;99.90;;;;;;4940776;28;20066;-62
2022/03/19 09:02:57;;;;;;;9.55;3.13;;;13.30;99.90;;;;;;4958745;28;20532;-62
2022/03/19 09:05:23;;;;;;;9.90;3.25;;;13.60;99.90;;;;;;4962319;28;20035;-63
2022/03/19 09:07:49;;;;;;;11.02;3.83;;;13.90;99.90;;;;;;4956209;28;20031;-61
2022/03/19 09:10:15;;;;;;;12.15;3.10;;;13.90;99.90;;;;;;4943824;28;20493;-63
2022/03/19 09:12:41;;;;;;;11.50;3.30;;;14.40;99.90;;;;;;4942325;28;20104;-63
2022/03/19 09:15:09;;;;;;;10.43;2.88;;;14.40;99.90;;;;;;4945044;28;20046;-61
2022/03/19 09:17:35;;;;;;;10.02;3.50;;;14.50;99.90;;;;;;4963067;28;20415;-64
2022/03/19 09:20:01;;;;;;;12.07;3.72;;;15.00;99.90;;;;;;4998212;28;20052;-66
2022/03/19 09:22:28;;;;;;;16.10;3.45;;;15.70;99.90;;;;;;4947841;28;20134;-62
2022/03/19 09:24:54;;;;;;;8.85;3.72;;;15.90;99.90;;;;;;5014066;28;20038;-64
2022/03/19 09:27:20;;;;;;;8.48;2.78;;;16.70;99.90;;;;;;4971537;28;20568;-62
2022/03/19 09:29:46;;;;;;;12.60;3.38;;;17.50;99.90;;;;;;5049052;28;20040;-65
2022/03/19 09:32:12;;;;;;;8.18;3.13;;;18.10;98.50;;;;;;5048616;28;20052;-64
2022/03/19 09:34:38;;;;;;;8.43;2.83;;;18.20;97.80;;;;;;4976191;28;20090;-67
2022/03/19 09:37:03;;;;;;;10.48;2.90;;;18.80;96.70;;;;;;4962180;28;20133;-64
2022/03/19 09:39:29;;;;;;;6.90;2.22;;;19.60;94.10;;;;;;4967063;28;20043;-62
2022/03/19 09:41:55;;;;;;;5.45;1.70;;;19.80;93.30;;;;;;4962940;28;20047;-63
2022/03/19 09:44:25;;;;;;;10.35;3.03;;;20.00;90.70;;;;;;4961355;28;20046;-62
2022/03/19 09:46:51;;;;;;;9.02;2.40;;;20.30;90.50;;;;;;4962908;28;20572;-62
2022/03/19 09:49:17;;;;;;;8.82;2.50;;;20.00;90.80;;;;;;4950559;28;20688;-60
2022/03/19 09:51:54;;;;;;;7.35;1.98;;;20.80;90.00;;;;;;4946184;28;20049;-62
2022/03/19 09:54:23;;;;;;;10.25;2.78;;;21.00;87.30;;;;;;4966813;28;20078;-61
2022/03/19 09:56:49;;;;;;;10.05;2.40;;;21.10;88.50;;;;;;4966707;28;20216;-63
2022/03/19 09:59:15;;;;;;;7.70;2.03;;;21.00;89.10;;;;;;4967687;28;20054;-63
2022/03/19 10:01:41;;;;;;;6.50;1.80;;;21.60;86.40;;;;;;5068607;28;20049;-63
2022/03/19 10:04:08;;;;;;;9.65;2.13;;;21.70;87.40;;;;;;5050773;28;20115;-63
2022/03/19 10:09:20;;;;;;;;;;;20.30;86.80;;;;;;5069212;28;20048;-63
2022/03/19 10:11:50;;;;;;;8.85;2.08;;;18.00;88.70;;;;;;5068650;28;20038;-62
2022/03/19 10:14:24;;;;;;;9.02;2.60;;;16.90;90.10;;;;;;5068677;28;20406;-63
2022/03/19 10:16:51;;;;;;;7.97;2.08;;;16.10;90.20;;;;;;5050632;28;20059;-64
2022/03/19 10:19:17;;;;;;;7.47;2.25;;;15.10;90.50;;;;;;5050579;28;20063;-65
2022/03/19 10:21:44;;;;;;;12.35;2.35;;;14.90;91.30;;;;;;5068487;28;20410;-64
2022/03/19 10:24:39;;;;;;;8.77;2.00;;;14.60;91.60;;;;;;5025725;28;20039;-63
2022/03/19 10:27:16;;;;;;;9.23;1.67;;;14.40;91.30;;;;;;4952077;28;20078;-62
2022/03/19 10:29:42;;;;;;;7.63;2.08;;;14.10;92.40;;;;;;4944105;28;20579;-64
2022/03/19 10:32:08;;;;;;;5.22;1.67;;;14.00;92.80;;;;;;4993112;28;20044;-62
2022/03/19 10:34:35;;;;;;;9.73;2.30;;;13.80;92.00;;;;;;5068827;28;20056;-61
2022/03/19 10:37:01;;;;;;;5.25;2.10;;;13.90;92.30;;;;;;5068373;28;20048;-62
2022/03/19 10:39:28;;;;;;;10.57;3.22;;;13.70;92.00;;;;;;5068445;28;20109;-64
2022/03/19 10:41:58;;;;;;;11.75;2.40;;;14.00;92.70;;;;;;5050320;28;20139;-64
2022/03/19 10:44:28;;;;;;;8.75;2.10;;;13.70;93.10;;;;;;5017373;28;20043;-64
2022/03/19 10:46:58;;;;;;;8.27;2.58;;;13.90;93.10;;;;;;4969626;28;20058;-64
2022/03/19 10:49:26;;;;;;;8.93;2.20;;;13.90;94.10;;;;;;4952671;28;20508;-63
2022/03/19 10:51:55;;;;;;;11.25;2.85;;;13.90;95.20;;;;;;4994782;28;20051;-63
2022/03/19 10:54:22;;;;;;;11.00;2.95;;;13.50;94.70;;;;;;5056557;28;20040;-63
2022/03/19 10:56:48;;;;;;;8.98;2.15;;;13.60;95.40;;;;;;5056376;28;20487;-63
2022/03/19 10:59:15;;;;;;;8.60;2.47;;;13.60;94.60;;;;;;5056695;28;20421;-64
2022/03/19 11:01:41;;;;;;;4.78;2.30;;;13.60;94.00;;;;;;4963501;28;20047;-64
2022/03/19 11:04:09;;;;;;;6.07;2.33;;;13.40;94.50;;;;;;4981268;28;20543;-63
2022/03/19 11:06:46;;;;;;;10.95;3.38;;;13.00;94.90;;;;;;5074349;28;20094;-63
2022/03/19 11:09:18;;;;;;;6.95;2.00;;;13.10;94.30;;;;;;5073462;28;20037;-63
2022/03/19 11:11:50;;;;;;;10.88;2.33;;;13.10;93.80;;;;;;5070912;28;20052;-63
2022/03/19 11:14:22;;;;;;;8.30;2.63;;;13.00;94.60;;;;;;5053746;28;20469;-62
2022/03/19 11:17:23;;;;;;;4.97;1.70;;;13.30;93.60;;;;;;5015726;28;20049;-63
2022/03/19 11:19:40;;;;;;;6.95;2.10;;;13.20;93.90;;;;;;4988300;28;20056;-62
2022/03/19 11:22:06;;;;;;;6.53;2.00;;;13.30;94.20;;;;;;5052822;28;20056;-63
2022/03/19 11:24:38;;;;;;;10.30;2.85;;;13.40;93.50;;;;;;5063166;28;20473;-63
2022/03/19 11:27:04;;;;;;;6.35;1.60;;;13.00;93.40;;;;;;4969450;28;20062;-63
2022/03/19 11:29:32;;;;;;;6.97;1.92;;;13.10;95.10;;;;;;5065557;28;20094;-61
2022/03/19 11:31:58;;;;;;;5.72;1.83;;;13.10;94.70;;;;;;5021336;28;20131;-63
2022/03/19 11:34:24;;;;;;;5.32;1.98;;;13.20;94.10;;;;;;5069956;28;20084;-61
2022/03/19 11:37:02;;;;;;;6.72;1.75;;;13.00;94.20;;;;;;5067762;28;20776;-64
2022/03/19 11:39:28;;;;;;;8.30;1.85;;;13.20;93.50;;;;;;5067132;28;20048;-62
2022/03/19 11:41:54;;;;;;;7.65;1.42;;;13.20;93.10;;;;;;4968296;28;20204;-64
2022/03/19 11:44:23;;;;;;;5.10;1.63;;;13.30;93.80;;;;;;4990428;28;20117;-65
2022/03/19 11:47:01;;;;;;;7.82;2.00;;;12.90;93.80;;;;;;4966357;28;20118;-64
2022/03/19 11:49:45;;;;;;;6.63;2.50;;;13.00;95.30;;;;;;4970382;28;20400;-64
2022/03/19 11:52:23;;;;;;;6.07;1.73;;;13.30;92.90;;;;;;4963745;28;20491;-65
2022/03/19 11:55:04;;;;;;;6.85;1.60;;;13.20;94.50;;;;;;4971491;28;20130;-64
2022/03/19 11:57:50;;;;;;;8.88;1.95;;;13.20;93.50;;;;;;5049018;28;20041;-64
2022/03/19 12:00:17;;;;;;;5.35;1.83;;;13.30;94.20;;;;;;4982900;28;20043;-65
2022/03/19 12:03:08;;;;;;;4.40;1.65;;;13.20;94.00;;;;;;4946686;28;20134;-64
2022/03/19 12:05:36;;;;;;;6.13;1.80;;;13.00;93.70;;;;;;4952989;28;20416;-63
2022/03/19 12:08:10;;;;;;;4.15;1.77;;;13.00;91.80;;;;;;4976504;28;20108;-63
2022/03/19 12:11:00;;;;;;;4.30;1.70;;;12.90;94.60;;;;;;4970712;28;20477;-63
2022/03/19 12:13:26;;;;;;;6.38;1.98;;;13.00;93.60;;;;;;5064397;28;20090;-63
2022/03/19 12:15:55;;;;;;;6.63;1.88;;;12.90;93.50;;;;;;5059819;28;20036;-65
2022/03/19 12:18:39;;;;;;;9.55;2.45;;;12.80;92.10;;;;;;4950900;28;20672;-62
2022/03/19 12:21:11;;;;;;;5.25;2.38;;;13.10;94.60;;;;;;4965183;28;20050;-62
2022/03/19 12:23:54;;;;;;;5.97;1.95;;;13.00;94.40;;;;;;4937484;28;20052;-62
2022/03/19 12:26:22;;;;;;;7.45;2.50;;;13.10;94.60;;;;;;4950655;28;20042;-63
2022/03/19 12:28:58;;;;;;;5.20;2.05;;;13.20;94.10;;;;;;4957109;28;20469;-63
2022/03/19 12:31:30;;;;;;;9.25;2.55;;;13.20;95.10;;;;;;4954049;28;20046;-63
2022/03/19 12:33:55;;;;;;;7.40;2.17;;;13.10;94.40;;;;;;4950736;28;20097;-64
2022/03/19 12:36:21;;;;;;;6.15;2.25;;;13.30;93.80;;;;;;4954127;28;20097;-63
2022/03/19 12:38:52;;;;;;;3.83;1.75;;;13.30;93.50;;;;;;4950492;28;20058;-63
2022/03/19 12:41:31;;;;;;;5.20;2.20;;;13.20;94.10;;;;;;4936677;28;20055;-62
2022/03/19 12:43:59;;;;;;;7.10;1.85;;;13.20;93.70;;;;;;4935266;28;20481;-63
2022/03/19 12:46:30;;;;;;;5.03;1.55;;;13.10;94.20;;;;;;4934000;28;20071;-63
2022/03/19 12:49:11;;;;;;;7.60;2.28;;;13.00;94.40;;;;;;4936958;28;20580;-64
2022/03/19 12:51:42;;;;;;;4.97;1.75;;;13.00;94.90;;;;;;4939401;28;20119;-63
2022/03/19 12:54:29;;;;;;;6.55;1.50;;;13.10;94.30;;;;;;4950084;28;20475;-63
2022/03/19 12:57:07;;;;;;;7.18;2.00;;;13.10;93.70;;;;;;4965173;28;20458;-62
2022/03/19 12:59:33;;;;;;;5.07;1.63;;;13.10;93.70;;;;;;4963495;28;20046;-63
2022/03/19 13:01:58;;;;;;;6.82;2.13;;;13.10;93.00;;;;;;4932999;28;20047;-64
2022/03/19 13:04:29;;;;;;;5.65;1.42;;;12.90;93.90;;;;;;4956308;28;20039;-63
2022/03/19 13:06:57;;;;;;;4.38;1.33;;;13.00;94.30;;;;;;4950399;28;20031;-63
2022/03/19 13:09:34;;;;;;;7.30;2.15;;;13.00;94.10;;;;;;4953274;28;20501;-62
2022/03/19 13:12:03;;;;;;;5.50;1.65;;;13.00;94.30;;;;;;4938669;28;20050;-63
2022/03/19 13:14:30;;;;;;;4.38;1.80;;;13.00;93.70;;;;;;4933455;28;20062;-63
2022/03/19 13:16:56;;;;;;;5.03;1.45;;;13.00;93.80;;;;;;4938654;28;20050;-63
2022/03/19 13:19:23;;;;;;;4.35;1.73;;;13.00;94.20;;;;;;4940810;28;20076;-63
2022/03/19 13:21:50;;;;;;;4.20;1.40;;;13.00;94.40;;;;;;4938315;28;20047;-63
2022/03/19 13:24:17;;;;;;;4.63;1.33;;;13.10;94.60;;;;;;4958921;28;20118;-61
2022/03/19 13:26:44;;;;;;;5.43;1.90;;;13.30;94.10;;;;;;4969821;28;20043;-63